Time;durP1;ratioP1;P1;durP2;ratioP2;P2;SDS_P1;SDS_P2;PMS_P1;PMS_P2;Temp;Humidity;BMP_temperature;BMP_pressure;BME280_temperature;BME280_humidity;BME280_pressure;Samples;Min_cycle;Max_cycle;Signal;HPM_P1;HPM_P2
2022/07/23 00:00:24;;;;;;;;;;;;;;;;;;5020493;28;19919;-80
2022/07/23 00:03:09;;;;;;;;;;;;;;;;;;5030719;28;19920;-80
2022/07/23 00:05:54;;;;;;;;;;;;;;;;;;5032858;28;19919;-81
2022/07/23 00:08:39;;;;;;;;;;;;;;;;;;5014967;28;19925;-80
2022/07/23 00:11:24;;;;;;;;;;;;;;;;;;5027955;28;19936;-80
2022/07/23 00:14:09;;;;;;;;;;;;;;;;;;5025574;28;20281;-80
2022/07/23 00:16:53;;;;;;;;;;;;;;;;;;5014998;28;19920;-80
2022/07/23 00:19:38;;;;;;;;;;;;;;;;;;5038696;28;19915;-80
2022/07/23 00:22:23;;;;;;;;;;;;;;;;;;5026534;28;19928;-80
2022/07/23 00:25:08;;;;;;;;;;;;;;;;;;5026232;28;19916;-80
2022/07/23 00:27:53;;;;;;;;;;;;;;;;;;5014154;28;19916;-80
2022/07/23 00:30:38;;;;;;;;;;;;;;;;;;5026616;28;19971;-80
2022/07/23 00:33:22;;;;;;;;;;;;;;;;;;5021711;28;20012;-80
2022/07/23 00:36:04;;;;;;;;;;;;;;;;;;5013683;28;19920;-81
2022/07/23 00:38:46;;;;;;;;;;;;;;;;;;5014493;28;19946;-80
2022/07/23 00:41:30;;;;;;;;;;;;;;;;;;5022855;28;19936;-80
2022/07/23 00:44:15;;;;;;;;;;;;;;;;;;5023172;28;20375;-80
2022/07/23 00:47:00;;;;;;;;;;;;;;;;;;5022131;28;19916;-80
2022/07/23 00:49:45;;;;;;;;;;;;;;;;;;5019139;28;19932;-80
2022/07/23 00:52:30;;;;;;;;;;;;;;;;;;5020711;28;20472;-80
2022/07/23 00:55:11;;;;;;;;;;;;;;;;;;5025680;28;20105;-80
2022/07/23 00:57:56;;;;;;;;;;;;;;;;;;5026270;28;19942;-80
2022/07/23 01:00:41;;;;;;;;;;;;;;;;;;5020667;28;19919;-80
2022/07/23 01:03:26;;;;;;;;;;;;;;;;;;5029820;28;19955;-80
2022/07/23 01:06:10;;;;;;;;;;;;;;;;;;5029949;28;20254;-80
2022/07/23 01:08:55;;;;;;;;;;;;;;;;;;5011718;28;20067;-80
2022/07/23 01:11:40;;;;;;;;;;;;;;;;;;5029211;28;19916;-80
2022/07/23 01:14:25;;;;;;;;;;;;;;;;;;5021949;28;19936;-80
2022/07/23 01:17:10;;;;;;;;;;;;;;;;;;5023060;28;19967;-80
2022/07/23 01:19:55;;;;;;;;;;;;;;;;;;5018114;28;19972;-80
2022/07/23 01:22:36;;;;;;;;;;;;;;;;;;5033094;28;19924;-80
2022/07/23 01:25:18;;;;;;;;;;;;;;;;;;5018539;28;19956;-80
2022/07/23 01:28:03;;;;;;;;;;;;;;;;;;5028596;28;19932;-81
2022/07/23 01:30:48;;;;;;;;;;;;;;;;;;5013094;28;19964;-80
2022/07/23 01:33:32;;;;;;;;;;;;;;;;;;5030919;28;20316;-80
2022/07/23 01:36:14;;;;;;;;;;;;;;;;;;5019273;28;20375;-80
2022/07/23 01:38:59;;;;;;;;;;;;;;;;;;5012423;28;20385;-80
2022/07/23 01:41:41;;;;;;;;;;;;;;;;;;5017884;28;20046;-80
2022/07/23 01:44:22;;;;;;;;;;;;;;;;;;5031025;28;20022;-80
2022/07/23 01:47:07;;;;;;;;;;;;;;;;;;5018249;28;20376;-80
2022/07/23 01:49:52;;;;;;;;;;;;;;;;;;5019400;28;20431;-80
2022/07/23 01:52:37;;;;;;;;;;;;;;;;;;5014328;28;19916;-80
2022/07/23 01:55:21;;;;;;;;;;;;;;;;;;5023177;28;19936;-80
2022/07/23 01:58:06;;;;;;;;;;;;;;;;;;5017118;28;20027;-80
2022/07/23 02:00:51;;;;;;;;;;;;;;;;;;5018419;28;19916;-80
2022/07/23 02:03:36;;;;;;;;;;;;;;;;;;5019389;28;19916;-80
2022/07/23 02:06:21;;;;;;;;;;;;;;;;;;5028413;28;19998;-80
2022/07/23 02:09:05;;;;;;;;;;;;;;;;;;5043107;28;19940;-80
2022/07/23 02:11:47;;;;;;;;;;;;;;;;;;5024201;28;19917;-80
2022/07/23 02:14:32;;;;;;;;;;;;;;;;;;5020885;28;19928;-80
2022/07/23 02:17:17;;;;;;;;;;;;;;;;;;5025648;28;19916;-80
2022/07/23 02:20:02;;;;;;;;;;;;;;;;;;5011762;28;19921;-80
2022/07/23 02:22:47;;;;;;;;;;;;;;;;;;5017490;28;19919;-80
2022/07/23 02:25:28;;;;;;;;;;;;;;;;;;5030605;28;19916;-80
2022/07/23 02:28:10;;;;;;;;;;;;;;;;;;5013296;28;20329;-80
2022/07/23 02:30:55;;;;;;;;;;;;;;;;;;5026924;28;19986;-80
2022/07/23 02:33:40;;;;;;;;;;;;;;;;;;5015234;28;19964;-80
2022/07/23 02:36:25;;;;;;;;;;;;;;;;;;5030808;28;20051;-80
2022/07/23 02:39:09;;;;;;;;;;;;;;;;;;5039064;28;19936;-81
2022/07/23 02:41:51;;;;;;;;;;;;;;;;;;5017975;28;19916;-82
2022/07/23 02:44:36;;;;;;;;;;;;;;;;;;5021363;28;20055;-80
2022/07/23 02:47:21;;;;;;;;;;;;;;;;;;5018108;28;19920;-81
2022/07/23 02:50:05;;;;;;;;;;;;;;;;;;5012345;28;20049;-81
2022/07/23 02:52:47;;;;;;;;;;;;;;;;;;5011974;28;19936;-81
2022/07/23 02:55:31;;;;;;;;;;;;;;;;;;5023541;28;20428;-80
2022/07/23 02:58:16;;;;;;;;;;;;;;;;;;5015923;28;20312;-80
2022/07/23 03:01:01;;;;;;;;;;;;;;;;;;5015445;28;19916;-80
2022/07/23 03:03:46;;;;;;;;;;;;;;;;;;5038872;28;19924;-80
2022/07/23 03:06:31;;;;;;;;;;;;;;;;;;5023137;28;19924;-80
2022/07/23 03:09:15;;;;;;;;;;;;;;;;;;5020179;28;19924;-80
2022/07/23 03:12:00;;;;;;;;;;;;;;;;;;5023039;28;20273;-80
2022/07/23 03:14:45;;;;;;;;;;;;;;;;;;5031838;28;19963;-80
2022/07/23 03:17:30;;;;;;;;;;;;;;;;;;5026304;28;20051;-80
2022/07/23 03:20:14;;;;;;;;;;;;;;;;;;5025367;28;19920;-81
2022/07/23 03:22:56;;;;;;;;;;;;;;;;;;5031394;28;19916;-80
2022/07/23 03:25:41;;;;;;;;;;;;;;;;;;5028068;28;19916;-80
2022/07/23 03:28:26;;;;;;;;;;;;;;;;;;5033661;28;20479;-80
2022/07/23 03:31:08;;;;;;;;;;;;;;;;;;5030786;28;19963;-80
2022/07/23 03:33:52;;;;;;;;;;;;;;;;;;5026754;28;19920;-80
2022/07/23 03:36:37;;;;;;;;;;;;;;;;;;5019406;28;19955;-80
2022/07/23 03:39:22;;;;;;;;;;;;;;;;;;5026745;28;20277;-80
2022/07/23 03:42:07;;;;;;;;;;;;;;;;;;5020850;28;19917;-80
2022/07/23 03:44:52;;;;;;;;;;;;;;;;;;5031140;28;19931;-80
2022/07/23 03:47:36;;;;;;;;;;;;;;;;;;5019667;28;19966;-80
2022/07/23 03:50:21;;;;;;;;;;;;;;;;;;5017148;28;20812;-80
2022/07/23 03:53:06;;;;;;;;;;;;;;;;;;5021558;28;19917;-80
2022/07/23 03:55:51;;;;;;;;;;;;;;;;;;5030867;28;19979;-80
2022/07/23 03:58:36;;;;;;;;;;;;;;;;;;5021579;28;19933;-80
2022/07/23 04:01:21;;;;;;;;;;;;;;;;;;5034691;28;19934;-80
2022/07/23 04:04:06;;;;;;;;;;;;;;;;;;5028276;28;20376;-80
2022/07/23 04:06:50;;;;;;;;;;;;;;;;;;5017093;28;19916;-80
2022/07/23 04:09:35;;;;;;;;;;;;;;;;;;5018587;28;20431;-80
2022/07/23 04:12:16;;;;;;;;;;;;;;;;;;5023431;28;19967;-80
2022/07/23 04:15:01;;;;;;;;;;;;;;;;;;5026918;28;19920;-80
2022/07/23 04:17:46;;;;;;;;;;;;;;;;;;5021222;28;19968;-80
2022/07/23 04:20:31;;;;;;;;;;;;;;;;;;5030380;28;19963;-80
2022/07/23 04:23:16;;;;;;;;;;;;;;;;;;5034180;28;19917;-81
2022/07/23 04:26:01;;;;;;;;;;;;;;;;;;5040428;28;19915;-83
2022/07/23 04:28:43;;;;;;;;;;;;;;;;;;5033329;28;19920;-80
2022/07/23 04:31:28;;;;;;;;;;;;;;;;;;5029238;28;19920;-80
2022/07/23 04:34:13;;;;;;;;;;;;;;;;;;5028010;28;20405;-80
2022/07/23 04:36:57;;;;;;;;;;;;;;;;;;5018830;28;19916;-80
2022/07/23 04:39:42;;;;;;;;;;;;;;;;;;5026474;28;19955;-81
2022/07/23 04:42:24;;;;;;;;;;;;;;;;;;5020432;28;19952;-81
2022/07/23 04:45:09;;;;;;;;;;;;;;;;;;5016280;28;20416;-80
2022/07/23 04:47:54;;;;;;;;;;;;;;;;;;5016508;28;19924;-80
2022/07/23 04:50:38;;;;;;;;;;;;;;;;;;5022315;28;20443;-80
2022/07/23 04:53:20;;;;;;;;;;;;;;;;;;5024502;28;20487;-81
2022/07/23 04:56:05;;;;;;;;;;;;;;;;;;5025011;28;19916;-81
2022/07/23 04:58:50;;;;;;;;;;;;;;;;;;5019290;28;19920;-80
2022/07/23 05:01:35;;;;;;;;;;;;;;;;;;5017218;28;19915;-81
2022/07/23 05:04:20;;;;;;;;;;;;;;;;;;5031416;28;20384;-80
2022/07/23 05:07:05;;;;;;;;;;;;;;;;;;5023735;28;19919;-80
2022/07/23 05:09:50;;;;;;;;;;;;;;;;;;5029860;28;19928;-80
2022/07/23 05:12:34;;;;;;;;;;;;;;;;;;5018736;28;19975;-81
2022/07/23 05:15:19;;;;;;;;;;;;;;;;;;5028103;28;20046;-80
2022/07/23 05:18:04;;;;;;;;;;;;;;;;;;5019485;28;19940;-81
2022/07/23 05:20:49;;;;;;;;;;;;;;;;;;5015445;28;19916;-80
2022/07/23 05:23:30;;;;;;;;;;;;;;;;;;5012569;28;19919;-80
2022/07/23 05:26:12;;;;;;;;;;;;;;;;;;5012128;28;19964;-81
2022/07/23 05:28:57;;;;;;;;;;;;;;;;;;5020169;28;20384;-80
2022/07/23 05:31:42;;;;;;;;;;;;;;;;;;5025255;28;20481;-81
2022/07/23 05:34:23;;;;;;;;;;;;;;;;;;5014910;28;20313;-81
2022/07/23 05:37:08;;;;;;;;;;;;;;;;;;5024607;28;19978;-80
2022/07/23 05:39:53;;;;;;;;;;;;;;;;;;5024319;28;19924;-81
2022/07/23 05:42:38;;;;;;;;;;;;;;;;;;5029841;28;19916;-80
2022/07/23 05:45:23;;;;;;;;;;;;;;;;;;5019082;28;19921;-80
2022/07/23 05:48:08;;;;;;;;;;;;;;;;;;5027453;28;19916;-80
2022/07/23 05:50:53;;;;;;;;;;;;;;;;;;5014163;28;19925;-80
2022/07/23 05:53:38;;;;;;;;;;;;;;;;;;5028448;28;19916;-80
2022/07/23 05:56:22;;;;;;;;;;;;;;;;;;5023383;28;19924;-81
2022/07/23 05:59:08;;;;;;;;;;;;;;;;;;5018905;28;19916;-80
2022/07/23 06:01:52;;;;;;;;;;;;;;;;;;5017710;28;19924;-80
2022/07/23 06:04:34;;;;;;;;;;;;;;;;;;5016492;28;20004;-80
2022/07/23 06:07:19;;;;;;;;;;;;;;;;;;5020214;28;19916;-80
2022/07/23 06:10:04;;;;;;;;;;;;;;;;;;5028815;28;20408;-81
2022/07/23 06:12:48;;;;;;;;;;;;;;;;;;5010532;28;19964;-80
2022/07/23 06:15:33;;;;;;;;;;;;;;;;;;5033361;28;20368;-80
2022/07/23 06:18:18;;;;;;;;;;;;;;;;;;5025038;28;19978;-80
2022/07/23 06:21:03;;;;;;;;;;;;;;;;;;5034396;28;19916;-80
2022/07/23 06:23:48;;;;;;;;;;;;;;;;;;5017262;28;20375;-80
2022/07/23 06:26:32;;;;;;;;;;;;;;;;;;5012138;28;20051;-80
2022/07/23 06:29:17;;;;;;;;;;;;;;;;;;5015062;28;19924;-80
2022/07/23 06:32:02;;;;;;;;;;;;;;;;;;5029223;28;19939;-80
2022/07/23 06:34:47;;;;;;;;;;;;;;;;;;5016183;28;20409;-80
2022/07/23 06:37:31;;;;;;;;;;;;;;;;;;5021120;28;19956;-80
2022/07/23 06:40:16;;;;;;;;;;;;;;;;;;5016821;28;19916;-80
2022/07/23 06:43:01;;;;;;;;;;;;;;;;;;5016287;28;20016;-80
2022/07/23 06:45:46;;;;;;;;;;;;;;;;;;5017699;28;19916;-80
2022/07/23 06:48:31;;;;;;;;;;;;;;;;;;5030297;28;20416;-80
2022/07/23 06:51:15;;;;;;;;;;;;;;;;;;5033560;28;19924;-80
2022/07/23 06:54:00;;;;;;;;;;;;;;;;;;5016750;28;19920;-81
2022/07/23 06:56:45;;;;;;;;;;;;;;;;;;5020250;28;20590;-80
2022/07/23 06:59:30;;;;;;;;;;;;;;;;;;5018127;28;19921;-80
2022/07/23 07:02:14;;;;;;;;;;;;;;;;;;5020930;28;19925;-80
2022/07/23 07:04:56;;;;;;;;;;;;;;;;;;5029562;28;19916;-80
2022/07/23 07:07:41;;;;;;;;;;;;;;;;;;5016784;28;19916;-80
2022/07/23 07:10:26;;;;;;;;;;;;;;;;;;5016043;28;19924;-81
2022/07/23 07:13:11;;;;;;;;;;;;;;;;;;5021102;28;19948;-80
2022/07/23 07:15:55;;;;;;;;;;;;;;;;;;5016178;28;19989;-81
2022/07/23 07:18:40;;;;;;;;;;;;;;;;;;5017366;28;19916;-81
2022/07/23 07:21:25;;;;;;;;;;;;;;;;;;5018059;28;19968;-80
2022/07/23 07:24:10;;;;;;;;;;;;;;;;;;5021031;28;19959;-80
2022/07/23 07:26:54;;;;;;;;;;;;;;;;;;5033349;28;20048;-80
2022/07/23 07:29:39;;;;;;;;;;;;;;;;;;5022300;28;19924;-80
2022/07/23 07:32:25;;;;;;;;;;;;;;;;;;5018608;28;19928;-81
2022/07/23 07:35:09;;;;;;;;;;;;;;;;;;5015686;28;19921;-80
2022/07/23 07:37:54;;;;;;;;;;;;;;;;;;5018464;28;19920;-80
2022/07/23 07:40:39;;;;;;;;;;;;;;;;;;5022044;28;19967;-80
2022/07/23 07:43:24;;;;;;;;;;;;;;;;;;5026621;28;19922;-82
2022/07/23 07:46:09;;;;;;;;;;;;;;;;;;5024631;28;19916;-81
2022/07/23 07:48:54;;;;;;;;;;;;;;;;;;5029558;28;19923;-81
2022/07/23 07:51:39;;;;;;;;;;;;;;;;;;5021036;28;20514;-81
2022/07/23 07:54:24;;;;;;;;;;;;;;;;;;5032388;28;20221;-81
2022/07/23 07:57:08;;;;;;;;;;;;;;;;;;5038229;28;19916;-80
2022/07/23 07:59:53;;;;;;;;;;;;;;;;;;5035405;28;20055;-80
2022/07/23 08:02:38;;;;;;;;;;;;;;;;;;5032102;28;19916;-80
2022/07/23 08:05:23;;;;;;;;;;;;;;;;;;5013813;28;19959;-80
2022/07/23 08:08:09;;;;;;;;;;;;;;;;;;5025760;28;19915;-80
2022/07/23 08:10:54;;;;;;;;;;;;;;;;;;5020341;28;20071;-81
2022/07/23 08:13:39;;;;;;;;;;;;;;;;;;5022528;28;19936;-80
2022/07/23 08:16:23;;;;;;;;;;;;;;;;;;5034610;28;20273;-81
2022/07/23 08:19:08;;;;;;;;;;;;;;;;;;5016354;28;19964;-81
2022/07/23 08:21:53;;;;;;;;;;;;;;;;;;5017048;28;19917;-81
2022/07/23 08:24:38;;;;;;;;;;;;;;;;;;5020104;28;20031;-79
2022/07/23 08:27:22;;;;;;;;;;;;;;;;;;5032836;28;19920;-80
2022/07/23 08:30:04;;;;;;;;;;;;;;;;;;5023698;28;19995;-81
2022/07/23 08:32:49;;;;;;;;;;;;;;;;;;5013602;28;19917;-80
2022/07/23 08:35:34;;;;;;;;;;;;;;;;;;5036487;28;19925;-80
2022/07/23 08:38:18;;;;;;;;;;;;;;;;;;5020394;28;19916;-80
2022/07/23 08:41:04;;;;;;;;;;;;;;;;;;5026473;28;19916;-83
2022/07/23 08:43:49;;;;;;;;;;;;;;;;;;5021896;28;19921;-81
2022/07/23 08:46:34;;;;;;;;;;;;;;;;;;5022336;28;20066;-79
2022/07/23 08:49:18;;;;;;;;;;;;;;;;;;5022179;28;20070;-79
2022/07/23 08:52:06;;;;;;;;;;;;;;;;;;5028852;28;19956;-79
2022/07/23 08:54:50;;;;;;;;;;;;;;;;;;5019825;28;19956;-82
2022/07/23 08:57:35;;;;;;;;;;;;;;;;;;5023703;28;19916;-80
2022/07/23 09:00:20;;;;;;;;;;;;;;;;;;5034521;28;20412;-81
2022/07/23 09:03:05;;;;;;;;;;;;;;;;;;5029463;28;19924;-81
2022/07/23 09:05:46;;;;;;;;;;;;;;;;;;5028922;28;19923;-80
2022/07/23 09:08:31;;;;;;;;;;;;;;;;;;5024433;28;19924;-80
2022/07/23 09:11:16;;;;;;;;;;;;;;;;;;5019007;28;20336;-80
2022/07/23 09:14:02;;;;;;;;;;;;;;;;;;5022528;28;19943;-80
2022/07/23 09:16:46;;;;;;;;;;;;;;;;;;5020093;28;19916;-80
2022/07/23 09:19:31;;;;;;;;;;;;;;;;;;5015550;28;19963;-80
2022/07/23 09:22:13;;;;;;;;;;;;;;;;;;5018233;28;20389;-80
2022/07/23 09:24:58;;;;;;;;;;;;;;;;;;5027698;28;20445;-80
2022/07/23 09:27:43;;;;;;;;;;;;;;;;;;5027948;28;20282;-80
2022/07/23 09:30:28;;;;;;;;;;;;;;;;;;5015279;28;19924;-80
2022/07/23 09:33:12;;;;;;;;;;;;;;;;;;5016745;28;19917;-79
2022/07/23 09:35:57;;;;;;;;;;;;;;;;;;5017437;28;19916;-79
2022/07/23 09:38:42;;;;;;;;;;;;;;;;;;5013825;28;19916;-81
2022/07/23 09:41:27;;;;;;;;;;;;;;;;;;5028297;28;19940;-80
2022/07/23 09:44:12;;;;;;;;;;;;;;;;;;5025512;28;19916;-80
2022/07/23 09:46:54;;;;;;;;;;;;;;;;;;5024421;28;20048;-80
2022/07/23 09:49:38;;;;;;;;;;;;;;;;;;5012648;28;19963;-80
2022/07/23 09:52:23;;;;;;;;;;;;;;;;;;5031170;28;19923;-81
2022/07/23 09:55:08;;;;;;;;;;;;;;;;;;5028926;28;20380;-80
2022/07/23 09:57:55;;;;;;;;;;;;;;;;;;5030619;28;20269;-80
2022/07/23 10:00:37;;;;;;;;;;;;;;;;;;5030398;28;19916;-80
2022/07/23 10:03:22;;;;;;;;;;;;;;;;;;5016477;28;20516;-80
2022/07/23 10:06:06;;;;;;;;;;;;;;;;;;5014726;28;19917;-80
2022/07/23 10:08:48;;;;;;;;;;;;;;;;;;5016691;28;20047;-80
2022/07/23 10:11:33;;;;;;;;;;;;;;;;;;5020831;28;19948;-81
2022/07/23 10:14:18;;;;;;;;;;;;;;;;;;5023976;28;19928;-79
2022/07/23 10:17:03;;;;;;;;;;;;;;;;;;5032111;28;19916;-80
2022/07/23 10:19:48;;;;;;;;;;;;;;;;;;5028739;28;19935;-80
2022/07/23 10:22:33;;;;;;;;;;;;;;;;;;5022030;28;19981;-79
2022/07/23 10:25:18;;;;;;;;;;;;;;;;;;5018847;28;19916;-79
2022/07/23 10:28:03;;;;;;;;;;;;;;;;;;5031017;28;19915;-80
2022/07/23 10:30:44;;;;;;;;;;;;;;;;;;5028799;28;19928;-80
2022/07/23 10:33:29;;;;;;;;;;;;;;;;;;5013516;28;20003;-80
2022/07/23 10:36:14;;;;;;;;;;;;;;;;;;5015541;28;20087;-80
2022/07/23 10:38:59;;;;;;;;;;;;;;;;;;5018729;28;20060;-78
2022/07/23 10:41:44;;;;;;;;;;;;;;;;;;5022090;28;19963;-79
2022/07/23 10:44:29;;;;;;;;;;;;;;;;;;5033848;28;20028;-79
2022/07/23 10:49:58;;;;;;;;;;;;;;;;;;5021971;28;19934;-79
2022/07/23 10:52:43;;;;;;;;;;;;;;;;;;5019125;28;19924;-79
2022/07/23 10:55:28;;;;;;;;;;;;;;;;;;5014577;28;19956;-80
2022/07/23 10:58:13;;;;;;;;;;;;;;;;;;5017987;28;19963;-80
2022/07/23 11:00:57;;;;;;;;;;;;;;;;;;5011668;28;20048;-79
2022/07/23 11:03:42;;;;;;;;;;;;;;;;;;5017405;28;19917;-79
2022/07/23 11:06:27;;;;;;;;;;;;;;;;;;5011864;28;19978;-79
2022/07/23 11:09:12;;;;;;;;;;;;;;;;;;5012677;28;19917;-79
2022/07/23 11:11:57;;;;;;;;;;;;;;;;;;5023700;28;19924;-79
2022/07/23 11:14:41;;;;;;;;;;;;;;;;;;5024216;28;19929;-79
2022/07/23 11:17:26;;;;;;;;;;;;;;;;;;5012148;28;20051;-80
2022/07/23 11:20:08;;;;;;;;;;;;;;;;;;5017860;28;20379;-80
2022/07/23 11:22:53;;;;;;;;;;;;;;;;;;5017778;28;20348;-80
2022/07/23 11:25:38;;;;;;;;;;;;;;;;;;5027694;28;20002;-80
2022/07/23 11:28:25;;;;;;;;;;;;;;;;;;5024312;28;20375;-79
2022/07/23 11:31:07;;;;;;;;;;;;;;;;;;5033751;28;20293;-80
2022/07/23 11:33:52;;;;;;;;;;;;;;;;;;5026003;28;20369;-80
2022/07/23 11:36:36;;;;;;;;;;;;;;;;;;5023119;28;20377;-80
2022/07/23 11:39:18;;;;;;;;;;;;;;;;;;5026911;28;20393;-80
2022/07/23 11:42:00;;;;;;;;;;;;;;;;;;5029624;28;20018;-81
2022/07/23 11:44:45;;;;;;;;;;;;;;;;;;5032071;28;19920;-81
2022/07/23 11:47:26;;;;;;;;;;;;;;;;;;5024210;28;20277;-80
2022/07/23 11:50:11;;;;;;;;;;;;;;;;;;5033230;28;20109;-81
2022/07/23 11:52:56;;;;;;;;;;;;;;;;;;5027804;28;19955;-81
2022/07/23 11:55:41;;;;;;;;;;;;;;;;;;5024977;28;20021;-81
2022/07/23 11:58:25;;;;;;;;;;;;;;;;;;5023520;28;19920;-81
2022/07/23 12:01:10;;;;;;;;;;;;;;;;;;5026653;28;19916;-81
2022/07/23 12:03:55;;;;;;;;;;;;;;;;;;5021169;28;20293;-81
2022/07/23 12:06:40;;;;;;;;;;;;;;;;;;5020612;28;19924;-81
2022/07/23 12:09:24;;;;;;;;;;;;;;;;;;5027006;28;19967;-80
2022/07/23 12:12:06;;;;;;;;;;;;;;;;;;5029810;28;20296;-81
2022/07/23 12:14:51;;;;;;;;;;;;;;;;;;5033056;28;20070;-81
2022/07/23 12:17:36;;;;;;;;;;;;;;;;;;5026534;28;20036;-80
2022/07/23 12:20:17;;;;;;;;;;;;;;;;;;5029520;28;20273;-80
2022/07/23 12:23:02;;;;;;;;;;;;;;;;;;5017747;28;19964;-80
2022/07/23 12:25:47;;;;;;;;;;;;;;;;;;5024041;28;20004;-80
2022/07/23 12:28:37;;;;;;;;;;;;;;;;;;5016775;28;19924;-80
2022/07/23 12:31:22;;;;;;;;;;;;;;;;;;5042263;28;19929;-81
2022/07/23 12:34:07;;;;;;;;;;;;;;;;;;5024394;28;19916;-81
2022/07/23 12:36:51;;;;;;;;;;;;;;;;;;5032901;28;19924;-81
2022/07/23 12:39:36;;;;;;;;;;;;;;;;;;5031495;28;20301;-81
2022/07/23 12:42:18;;;;;;;;;;;;;;;;;;5022609;28;19917;-80
2022/07/23 12:45:03;;;;;;;;;;;;;;;;;;5022722;28;19917;-81
2022/07/23 12:47:48;;;;;;;;;;;;;;;;;;5031939;28;19920;-81
2022/07/23 12:50:33;;;;;;;;;;;;;;;;;;5027533;28;19924;-81
2022/07/23 12:53:18;;;;;;;;;;;;;;;;;;5032158;28;20014;-81
2022/07/23 12:56:03;;;;;;;;;;;;;;;;;;5026726;28;19916;-81
2022/07/23 12:58:47;;;;;;;;;;;;;;;;;;5023739;28;20304;-81
2022/07/23 13:01:32;;;;;;;;;;;;;;;;;;5021386;28;19932;-80
2022/07/23 13:04:18;;;;;;;;;;;;;;;;;;5026025;28;19916;-80
2022/07/23 13:07:02;;;;;;;;;;;;;;;;;;5032078;28;19917;-80
2022/07/23 13:09:47;;;;;;;;;;;;;;;;;;5018171;28;19975;-80
2022/07/23 13:12:32;;;;;;;;;;;;;;;;;;5039519;28;20300;-80
2022/07/23 13:15:17;;;;;;;;;;;;;;;;;;5029662;28;20349;-80
2022/07/23 13:18:02;;;;;;;;;;;;;;;;;;5014309;28;19932;-80
2022/07/23 13:20:47;;;;;;;;;;;;;;;;;;5033216;28;19917;-80
2022/07/23 13:23:31;;;;;;;;;;;;;;;;;;5017119;28;19932;-80
2022/07/23 13:26:16;;;;;;;;;;;;;;;;;;5027533;28;20376;-80
2022/07/23 13:29:01;;;;;;;;;;;;;;;;;;5025263;28;20004;-79
2022/07/23 13:31:47;;;;;;;;;;;;;;;;;;5025133;28;19929;-80
2022/07/23 13:34:32;;;;;;;;;;;;;;;;;;5020711;28;19916;-80
2022/07/23 13:37:14;;;;;;;;;;;;;;;;;;5012150;28;20011;-80
2022/07/23 13:39:58;;;;;;;;;;;;;;;;;;5025427;28;20373;-80
2022/07/23 13:42:43;;;;;;;;;;;;;;;;;;5022441;28;19917;-80
2022/07/23 13:45:28;;;;;;;;;;;;;;;;;;5022113;28;19935;-80
2022/07/23 13:48:13;;;;;;;;;;;;;;;;;;5022190;28;20139;-80
2022/07/23 13:50:57;;;;;;;;;;;;;;;;;;5014479;28;19941;-81
2022/07/23 13:53:42;;;;;;;;;;;;;;;;;;5027392;28;20288;-80
2022/07/23 13:56:27;;;;;;;;;;;;;;;;;;5028509;28;20265;-80
2022/07/23 13:59:12;;;;;;;;;;;;;;;;;;5019192;28;20016;-80
2022/07/23 14:01:54;;;;;;;;;;;;;;;;;;5016542;28;20387;-80
2022/07/23 14:04:38;;;;;;;;;;;;;;;;;;5021204;28;19920;-81
2022/07/23 14:07:20;;;;;;;;;;;;;;;;;;5021729;28;19920;-80
2022/07/23 14:10:05;;;;;;;;;;;;;;;;;;5026122;28;19928;-81
2022/07/23 14:12:50;;;;;;;;;;;;;;;;;;5019011;28;20059;-80
2022/07/23 14:15:35;;;;;;;;;;;;;;;;;;5029984;28;19920;-80
2022/07/23 14:18:22;;;;;;;;;;;;;;;;;;5016275;28;20273;-81
2022/07/23 14:21:07;;;;;;;;;;;;;;;;;;5024525;28;20384;-81
2022/07/23 14:23:51;;;;;;;;;;;;;;;;;;5025139;28;19917;-80
2022/07/23 14:26:36;;;;;;;;;;;;;;;;;;5012877;28;20389;-80
2022/07/23 14:29:21;;;;;;;;;;;;;;;;;;5022129;28;20285;-80
2022/07/23 14:32:06;;;;;;;;;;;;;;;;;;5029586;28;20289;-80
2022/07/23 14:34:50;;;;;;;;;;;;;;;;;;5013868;28;19987;-81
2022/07/23 14:37:35;;;;;;;;;;;;;;;;;;5022809;28;20376;-81
2022/07/23 14:40:20;;;;;;;;;;;;;;;;;;5027773;28;20372;-81
2022/07/23 14:43:02;;;;;;;;;;;;;;;;;;5013706;28;19917;-80
2022/07/23 14:45:47;;;;;;;;;;;;;;;;;;5011595;28;20465;-80
2022/07/23 14:48:31;;;;;;;;;;;;;;;;;;5015135;28;20322;-81
2022/07/23 14:51:16;;;;;;;;;;;;;;;;;;5016735;28;20067;-81
2022/07/23 14:54:01;;;;;;;;;;;;;;;;;;5016238;28;19916;-80
2022/07/23 14:56:43;;;;;;;;;;;;;;;;;;5028814;28;19920;-80
2022/07/23 14:59:28;;;;;;;;;;;;;;;;;;5015862;28;20065;-80
2022/07/23 15:02:12;;;;;;;;;;;;;;;;;;5032078;28;20368;-80
2022/07/23 15:05:00;;;;;;;;;;;;;;;;;;5023404;28;19924;-80
2022/07/23 15:07:45;;;;;;;;;;;;;;;;;;5024365;28;19919;-82
2022/07/23 15:10:27;;;;;;;;;;;;;;;;;;5029349;28;19971;-80
2022/07/23 15:13:12;;;;;;;;;;;;;;;;;;5028323;28;19967;-79
2022/07/23 15:15:57;;;;;;;;;;;;;;;;;;5021269;28;19963;-80
2022/07/23 15:18:42;;;;;;;;;;;;;;;;;;5035509;28;19993;-80
2022/07/23 15:21:23;;;;;;;;;;;;;;;;;;5030381;28;19920;-82
2022/07/23 15:24:08;;;;;;;;;;;;;;;;;;5031971;28;19916;-83
2022/07/23 15:26:53;;;;;;;;;;;;;;;;;;5028382;28;20039;-82
2022/07/23 15:29:38;;;;;;;;;;;;;;;;;;5027107;28;19991;-80
2022/07/23 15:32:26;;;;;;;;;;;;;;;;;;5017704;28;19936;-80
2022/07/23 15:35:08;;;;;;;;;;;;;;;;;;5031170;28;19919;-79
2022/07/23 15:37:53;;;;;;;;;;;;;;;;;;5030628;28;20274;-80
2022/07/23 15:40:37;;;;;;;;;;;;;;;;;;5026959;28;19921;-79
2022/07/23 15:43:19;;;;;;;;;;;;;;;;;;5030568;28;19929;-80
2022/07/23 15:46:04;;;;;;;;;;;;;;;;;;5033364;28;19964;-80
2022/07/23 15:48:49;;;;;;;;;;;;;;;;;;5021208;28;19964;-80
2022/07/23 15:51:34;;;;;;;;;;;;;;;;;;5026845;28;19975;-81
2022/07/23 15:54:19;;;;;;;;;;;;;;;;;;5026304;28;19916;-83
2022/07/23 15:57:04;;;;;;;;;;;;;;;;;;5025209;28;19925;-83
2022/07/23 15:59:48;;;;;;;;;;;;;;;;;;5028889;28;19929;-81
2022/07/23 16:02:33;;;;;;;;;;;;;;;;;;5030147;28;19917;-80
2022/07/23 16:05:18;;;;;;;;;;;;;;;;;;5029193;28;20428;-80
2022/07/23 16:08:03;;;;;;;;;;;;;;;;;;5024335;28;20412;-82
2022/07/23 16:10:48;;;;;;;;;;;;;;;;;;5022569;28;19976;-85
2022/07/23 16:13:33;;;;;;;;;;;;;;;;;;5031251;28;19940;-81
2022/07/23 16:16:19;;;;;;;;;;;;;;;;;;5030408;28;19916;-83
2022/07/23 16:19:04;;;;;;;;;;;;;;;;;;5026399;28;20230;-80
2022/07/23 16:21:48;;;;;;;;;;;;;;;;;;5026398;28;19951;-79
2022/07/23 16:24:33;;;;;;;;;;;;;;;;;;5026799;28;20492;-80
2022/07/23 16:27:18;;;;;;;;;;;;;;;;;;5032872;28;19924;-82
2022/07/23 16:30:03;;;;;;;;;;;;;;;;;;5031079;28;19959;-83
2022/07/23 16:32:48;;;;;;;;;;;;;;;;;;5026345;28;20420;-84
2022/07/23 16:35:32;;;;;;;;;;;;;;;;;;5028182;28;20312;-85
2022/07/23 16:38:14;;;;;;;;;;;;;;;;;;5027057;28;19921;-80
2022/07/23 16:40:59;;;;;;;;;;;;;;;;;;5027833;28;19928;-80
2022/07/23 16:43:44;;;;;;;;;;;;;;;;;;5028324;28;19917;-79
2022/07/23 16:46:25;;;;;;;;;;;;;;;;;;5023266;28;19920;-80
2022/07/23 16:49:10;;;;;;;;;;;;;;;;;;5021496;28;19920;-78
2022/07/23 16:51:55;;;;;;;;;;;;;;;;;;5020743;28;19994;-81
2022/07/23 16:54:37;;;;;;;;;;;;;;;;;;5041053;28;19923;-81
2022/07/23 16:57:22;;;;;;;;;;;;;;;;;;5040321;28;19940;-79
2022/07/23 17:00:08;;;;;;;;;;;;;;;;;;5035321;28;19920;-80
2022/07/23 17:02:53;;;;;;;;;;;;;;;;;;5028895;28;19920;-83
2022/07/23 17:05:38;;;;;;;;;;;;;;;;;;5032540;28;19917;-83
2022/07/23 17:08:23;;;;;;;;;;;;;;;;;;5031303;28;19956;-83
2022/07/23 17:11:08;;;;;;;;;;;;;;;;;;5045944;28;20392;-83
2022/07/23 17:13:53;;;;;;;;;;;;;;;;;;5033565;28;19931;-87
2022/07/23 17:16:38;;;;;;;;;;;;;;;;;;5030655;28;19924;-82
2022/07/23 17:19:30;;;;;;;;;;;;;;;;;;5031648;28;20455;-88
2022/07/23 17:22:15;;;;;;;;;;;;;;;;;;5033469;28;19916;-80
2022/07/23 17:24:57;;;;;;;;;;;;;;;;;;5034368;28;19930;-81
2022/07/23 17:27:41;;;;;;;;;;;;;;;;;;5039798;28;19924;-83
2022/07/23 17:30:26;;;;;;;;;;;;;;;;;;5034159;28;19928;-82
2022/07/23 17:33:11;;;;;;;;;;;;;;;;;;5025881;28;19925;-81
2022/07/23 17:35:56;;;;;;;;;;;;;;;;;;5025764;28;19917;-79
2022/07/23 17:38:41;;;;;;;;;;;;;;;;;;5024870;28;19920;-82
2022/07/23 17:41:26;;;;;;;;;;;;;;;;;;5028771;28;19920;-81
2022/07/23 17:44:10;;;;;;;;;;;;;;;;;;5028748;28;19923;-82
2022/07/23 17:46:52;;;;;;;;;;;;;;;;;;5031276;28;20320;-81
2022/07/23 17:49:36;;;;;;;;;;;;;;;;;;5026672;28;19920;-82
2022/07/23 17:52:22;;;;;;;;;;;;;;;;;;5032034;28;19924;-89
2022/07/23 17:55:06;;;;;;;;;;;;;;;;;;5052710;28;19994;-89
2022/07/23 17:57:48;;;;;;;;;;;;;;;;;;5052478;28;19956;-88
2022/07/23 18:00:33;;;;;;;;;;;;;;;;;;5054451;28;19924;-89
2022/07/23 18:03:18;;;;;;;;;;;;;;;;;;5052066;28;19923;-90
2022/07/23 18:06:03;;;;;;;;;;;;;;;;;;5051353;28;19923;-83
2022/07/23 18:08:48;;;;;;;;;;;;;;;;;;5031825;28;19923;-88
2022/07/23 18:11:33;;;;;;;;;;;;;;;;;;5029937;28;19964;-88
2022/07/23 18:14:17;;;;;;;;;;;;;;;;;;5029613;28;19928;-87
2022/07/23 18:17:02;;;;;;;;;;;;;;;;;;5028599;28;19932;-88
2022/07/23 18:19:47;;;;;;;;;;;;;;;;;;5018280;28;19921;-88
2022/07/23 18:22:32;;;;;;;;;;;;;;;;;;5036917;28;19915;-88
2022/07/23 18:25:14;;;;;;;;;;;;;;;;;;5039499;28;19915;-88
2022/07/23 18:27:59;;;;;;;;;;;;;;;;;;5037203;28;19940;-86
2022/07/23 18:30:44;;;;;;;;;;;;;;;;;;5030352;28;19920;-90
2022/07/23 18:33:29;;;;;;;;;;;;;;;;;;5035672;28;20246;-88
2022/07/23 18:36:13;;;;;;;;;;;;;;;;;;5031315;28;20044;-87
2022/07/23 18:38:58;;;;;;;;;;;;;;;;;;5037125;28;20040;-89
2022/07/23 18:41:43;;;;;;;;;;;;;;;;;;5032009;28;19921;-90
2022/07/23 18:44:28;;;;;;;;;;;;;;;;;;5033817;28;19959;-88